Time;durP1;ratioP1;P1;durP2;ratioP2;P2;SDS_P1;SDS_P2;PMS_P1;PMS_P2;Temp;Humidity;BMP_temperature;BMP_pressure;BME280_temperature;BME280_humidity;BME280_pressure;Samples;Min_cycle;Max_cycle;Signal;HPM_P1;HPM_P2
2021/12/09 00:01:45;;;;;;;0.20;0.20;;;0.80;99.90;;;;;;5012945;28;20718;-69
2021/12/09 00:04:14;;;;;;;0.10;0.10;;;0.80;99.90;;;;;;5007000;28;20295;-69
2021/12/09 00:06:44;;;;;;;0.10;0.10;;;0.80;99.90;;;;;;5008396;28;20723;-68
2021/12/09 00:09:14;;;;;;;0.20;0.20;;;0.80;99.90;;;;;;5015525;28;20658;-68
2021/12/09 00:11:46;;;;;;;0.20;0.20;;;0.70;99.90;;;;;;5011686;28;20627;-68
2021/12/09 00:14:18;;;;;;;0.10;0.10;;;0.70;99.90;;;;;;5013085;28;21185;-68
2021/12/09 00:16:46;;;;;;;0.10;0.10;;;0.70;99.90;;;;;;5007707;28;20707;-68
2021/12/09 00:19:13;;;;;;;0.20;0.20;;;0.70;99.90;;;;;;5005117;28;20626;-68
2021/12/09 00:21:40;;;;;;;0.13;0.13;;;0.70;99.90;;;;;;5006240;28;20620;-69
2021/12/09 00:24:07;;;;;;;0.20;0.20;;;0.70;99.90;;;;;;5007029;28;20599;-67
2021/12/09 00:26:34;;;;;;;0.20;0.20;;;0.60;99.90;;;;;;5018948;28;20632;-67
2021/12/09 00:29:01;;;;;;;0.20;0.20;;;0.60;99.90;;;;;;5016074;28;20616;-68
2021/12/09 00:31:29;;;;;;;0.13;0.13;;;0.60;99.90;;;;;;5007524;28;20707;-69
2021/12/09 00:33:58;;;;;;;0.10;0.10;;;0.60;99.90;;;;;;5030515;28;20635;-67
2021/12/09 00:36:33;;;;;;;0.10;0.10;;;0.60;99.90;;;;;;5008859;28;20655;-68
2021/12/09 00:39:00;;;;;;;0.10;0.10;;;0.60;99.90;;;;;;5006049;28;20676;-68
2021/12/09 00:41:28;;;;;;;0.10;0.10;;;0.60;99.90;;;;;;5007797;28;20631;-69
2021/12/09 00:43:54;;;;;;;0.10;0.10;;;0.60;99.90;;;;;;5014483;28;20601;-68
2021/12/09 00:46:21;;;;;;;0.20;0.20;;;0.60;99.90;;;;;;5011834;28;20642;-69
2021/12/09 00:48:50;;;;;;;0.10;0.10;;;0.60;99.90;;;;;;5014237;28;20703;-66
2021/12/09 00:51:17;;;;;;;0.10;0.10;;;0.60;99.90;;;;;;5013861;28;20610;-67
2021/12/09 00:53:44;;;;;;;0.10;0.10;;;0.60;99.90;;;;;;5012362;28;20611;-68
2021/12/09 00:56:13;;;;;;;0.10;0.10;;;0.60;99.90;;;;;;5013164;28;20699;-67
2021/12/09 00:58:41;;;;;;;0.10;0.10;;;0.60;99.90;;;;;;5014729;28;20224;-68
2021/12/09 01:01:09;;;;;;;0.20;0.20;;;0.60;99.90;;;;;;5009575;28;20631;-69
2021/12/09 01:03:37;;;;;;;0.20;0.20;;;0.70;99.90;;;;;;5015081;28;20619;-68
2021/12/09 01:06:06;;;;;;;0.10;0.10;;;0.70;99.90;;;;;;5013552;28;20667;-68
2021/12/09 01:08:33;;;;;;;0.20;0.20;;;0.60;99.90;;;;;;5013247;28;20642;-69
2021/12/09 01:11:01;;;;;;;0.20;0.20;;;0.60;99.90;;;;;;5009535;28;20209;-68
2021/12/09 01:13:28;;;;;;;0.20;0.20;;;0.60;99.90;;;;;;5007924;28;20284;-69
2021/12/09 01:15:55;;;;;;;0.10;0.10;;;0.60;99.90;;;;;;5013336;28;20682;-68
2021/12/09 01:18:22;;;;;;;0.10;0.10;;;0.60;99.90;;;;;;5011331;28;20224;-69
2021/12/09 01:20:50;;;;;;;0.20;0.20;;;0.60;99.90;;;;;;5010596;28;20276;-69
2021/12/09 01:23:18;;;;;;;0.20;0.20;;;0.70;99.90;;;;;;5012393;28;20662;-69
2021/12/09 01:25:47;;;;;;;0.20;0.20;;;0.70;99.90;;;;;;5008348;28;20669;-68
2021/12/09 01:28:21;;;;;;;0.20;0.20;;;0.70;99.90;;;;;;5010189;28;20282;-68
2021/12/09 01:30:50;;;;;;;0.10;0.10;;;0.70;99.90;;;;;;5014313;28;20196;-69
2021/12/09 01:33:17;;;;;;;0.10;0.10;;;0.70;99.90;;;;;;5012424;28;20647;-69
2021/12/09 01:35:47;;;;;;;0.20;0.20;;;0.70;99.90;;;;;;5006585;28;20656;-68
2021/12/09 01:38:16;;;;;;;0.20;0.20;;;0.70;99.90;;;;;;5008805;28;20659;-66
2021/12/09 01:40:45;;;;;;;0.20;0.20;;;0.70;99.90;;;;;;5007181;28;20651;-69
2021/12/09 01:43:13;;;;;;;0.20;0.20;;;0.70;99.90;;;;;;5012003;28;20646;-68
2021/12/09 01:45:41;;;;;;;0.10;0.10;;;0.70;99.90;;;;;;5007777;28;20624;-68
2021/12/09 01:48:08;;;;;;;0.10;0.10;;;0.70;99.90;;;;;;5019335;28;20647;-69
2021/12/09 01:50:36;;;;;;;0.20;0.20;;;0.70;99.90;;;;;;5008968;28;20272;-67
2021/12/09 01:53:04;;;;;;;0.10;0.10;;;0.70;99.90;;;;;;5014417;28;20970;-67
2021/12/09 01:55:31;;;;;;;0.10;0.10;;;0.70;99.90;;;;;;5010452;28;20608;-67
2021/12/09 01:57:59;;;;;;;0.20;0.20;;;0.70;99.90;;;;;;5007278;28;20727;-69
2021/12/09 02:00:29;;;;;;;0.20;0.20;;;0.70;99.90;;;;;;5006869;28;20619;-69
2021/12/09 02:02:56;;;;;;;0.20;0.20;;;0.70;99.90;;;;;;5018142;28;20204;-68
2021/12/09 02:05:23;;;;;;;0.10;0.10;;;0.60;99.90;;;;;;5013926;28;20704;-69
2021/12/09 02:07:51;;;;;;;0.10;0.10;;;0.60;99.90;;;;;;5014163;28;20302;-68
2021/12/09 02:10:20;;;;;;;0.20;0.20;;;0.70;99.90;;;;;;5012519;28;20631;-68
2021/12/09 02:12:48;;;;;;;0.20;0.20;;;0.70;99.90;;;;;;5009168;28;20618;-69
2021/12/09 02:15:20;;;;;;;0.10;0.10;;;0.70;99.90;;;;;;5011178;28;20581;-67
2021/12/09 02:17:48;;;;;;;0.20;0.20;;;0.70;99.90;;;;;;5014670;28;20215;-68
2021/12/09 02:20:15;;;;;;;0.17;0.17;;;0.70;99.90;;;;;;5005532;28;20650;-68
2021/12/09 02:22:47;;;;;;;0.10;0.10;;;0.70;99.90;;;;;;5014754;28;20208;-68
2021/12/09 02:25:15;;;;;;;0.10;0.10;;;0.70;99.90;;;;;;5008967;28;20262;-69
2021/12/09 02:27:42;;;;;;;0.20;0.20;;;0.70;99.90;;;;;;5020502;28;20642;-69
2021/12/09 02:30:10;;;;;;;0.10;0.10;;;0.70;99.90;;;;;;5006770;28;20200;-68
2021/12/09 02:32:37;;;;;;;0.10;0.10;;;0.70;99.90;;;;;;5008912;28;20661;-68
2021/12/09 02:35:05;;;;;;;0.20;0.20;;;0.70;99.90;;;;;;5002681;28;20622;-68
2021/12/09 02:37:32;;;;;;;0.10;0.10;;;0.70;99.90;;;;;;5010952;28;20758;-67
2021/12/09 02:40:01;;;;;;;0.10;0.10;;;0.70;99.90;;;;;;5004679;28;20622;-68
2021/12/09 02:42:28;;;;;;;0.10;0.10;;;0.70;99.90;;;;;;5007547;28;20647;-69
2021/12/09 02:44:57;;;;;;;0.10;0.10;;;0.70;99.90;;;;;;5008423;28;20643;-69
2021/12/09 02:47:24;;;;;;;0.20;0.20;;;0.70;99.90;;;;;;5006984;28;20654;-68
2021/12/09 02:49:51;;;;;;;0.20;0.20;;;0.70;99.90;;;;;;5008726;28;20646;-68
2021/12/09 02:52:19;;;;;;;0.20;0.20;;;0.80;99.90;;;;;;5010765;28;20717;-68
2021/12/09 02:54:46;;;;;;;0.20;0.20;;;0.80;99.90;;;;;;5012266;28;20619;-69
2021/12/09 02:57:15;;;;;;;0.13;0.13;;;0.80;99.90;;;;;;5013283;28;20864;-69
2021/12/09 02:59:42;;;;;;;0.10;0.10;;;0.80;99.90;;;;;;5030100;28;20643;-69
2021/12/09 03:02:10;;;;;;;0.20;0.20;;;0.80;99.90;;;;;;5021031;28;20657;-68
2021/12/09 03:04:41;;;;;;;0.20;0.20;;;0.80;99.90;;;;;;5015466;28;20639;-67
2021/12/09 03:07:11;;;;;;;0.10;0.10;;;0.80;99.90;;;;;;5014291;28;20660;-68
2021/12/09 03:09:48;;;;;;;0.10;0.10;;;0.80;99.90;;;;;;5021076;28;20610;-68
2021/12/09 03:12:18;;;;;;;0.10;0.10;;;0.80;99.90;;;;;;5015748;28;20955;-68
2021/12/09 03:14:46;;;;;;;0.10;0.10;;;0.80;99.90;;;;;;5016507;28;20619;-68
2021/12/09 03:17:13;;;;;;;0.10;0.10;;;0.80;99.90;;;;;;5014377;28;21150;-68
2021/12/09 03:19:40;;;;;;;0.10;0.10;;;0.80;99.90;;;;;;5011509;28;20761;-68
2021/12/09 03:22:08;;;;;;;0.20;0.20;;;0.70;99.90;;;;;;5022242;28;20611;-68
2021/12/09 03:24:35;;;;;;;0.10;0.10;;;0.70;99.90;;;;;;5018653;28;20611;-68
2021/12/09 03:27:02;;;;;;;0.20;0.20;;;0.80;99.90;;;;;;5018501;28;20672;-68
2021/12/09 03:29:31;;;;;;;0.10;0.10;;;0.80;99.90;;;;;;5011642;28;20616;-68
2021/12/09 03:32:01;;;;;;;0.20;0.20;;;0.80;99.90;;;;;;5017375;28;20687;-69
2021/12/09 03:34:30;;;;;;;0.10;0.10;;;0.80;99.90;;;;;;5008285;28;20618;-67
2021/12/09 03:36:59;;;;;;;0.10;0.10;;;0.80;99.90;;;;;;5015479;28;20674;-68
2021/12/09 03:39:29;;;;;;;0.10;0.10;;;0.80;99.90;;;;;;5020409;28;20259;-69
2021/12/09 03:41:57;;;;;;;0.20;0.20;;;0.80;99.90;;;;;;5008558;28;20734;-69
2021/12/09 03:44:25;;;;;;;0.10;0.10;;;0.80;99.90;;;;;;5013089;28;20213;-68
2021/12/09 03:46:55;;;;;;;0.20;0.20;;;0.80;99.90;;;;;;5013354;28;20238;-69
2021/12/09 03:49:23;;;;;;;0.20;0.20;;;0.80;99.90;;;;;;5014053;28;20617;-69
2021/12/09 03:51:50;;;;;;;0.20;0.20;;;0.80;99.90;;;;;;5011868;28;20622;-69
2021/12/09 03:54:17;;;;;;;0.10;0.10;;;0.80;99.90;;;;;;5014454;28;20654;-69
2021/12/09 03:56:45;;;;;;;0.10;0.10;;;0.70;99.90;;;;;;5008322;28;20729;-69
2021/12/09 03:59:13;;;;;;;0.10;0.10;;;0.80;99.90;;;;;;5011884;28;20631;-69
2021/12/09 04:01:43;;;;;;;0.10;0.10;;;0.70;99.90;;;;;;5014531;28;21162;-68
2021/12/09 04:04:12;;;;;;;0.20;0.20;;;0.80;99.90;;;;;;5012164;28;20627;-69
2021/12/09 04:06:39;;;;;;;0.10;0.10;;;0.80;99.90;;;;;;5001502;28;20604;-69
2021/12/09 04:09:09;;;;;;;0.20;0.20;;;0.80;99.90;;;;;;5010715;28;21215;-69
2021/12/09 04:11:36;;;;;;;0.10;0.10;;;0.80;99.90;;;;;;5013479;28;20607;-69
2021/12/09 04:14:03;;;;;;;0.20;0.20;;;0.70;99.90;;;;;;5009530;28;20595;-69
2021/12/09 04:16:31;;;;;;;0.20;0.20;;;0.80;99.90;;;;;;5022874;28;20655;-69
2021/12/09 04:18:59;;;;;;;0.10;0.10;;;0.80;99.90;;;;;;5006960;28;20212;-69
2021/12/09 04:21:28;;;;;;;0.20;0.20;;;0.90;99.90;;;;;;5010159;28;20220;-68
2021/12/09 04:23:55;;;;;;;0.20;0.20;;;0.90;99.90;;;;;;5014814;28;20201;-69
2021/12/09 04:26:22;;;;;;;0.20;0.20;;;0.90;99.90;;;;;;5015753;28;20630;-68
2021/12/09 04:28:49;;;;;;;0.13;0.13;;;0.90;99.90;;;;;;5010608;28;20284;-69
2021/12/09 04:31:17;;;;;;;0.20;0.20;;;0.90;99.90;;;;;;5020649;28;20643;-69
2021/12/09 04:33:45;;;;;;;0.10;0.10;;;0.90;99.90;;;;;;5005210;28;20207;-68
2021/12/09 04:36:11;;;;;;;0.20;0.20;;;0.90;99.90;;;;;;5017358;28;20981;-69
2021/12/09 04:38:40;;;;;;;0.10;0.10;;;0.90;99.90;;;;;;5021004;28;20230;-66
2021/12/09 04:41:07;;;;;;;0.10;0.10;;;0.90;99.90;;;;;;5008866;28;20640;-68
2021/12/09 04:43:35;;;;;;;0.20;0.20;;;0.90;99.90;;;;;;5012243;28;20200;-67
2021/12/09 04:46:02;;;;;;;0.13;0.13;;;0.80;99.90;;;;;;5010913;28;20208;-68
2021/12/09 04:48:29;;;;;;;0.10;0.10;;;0.80;99.90;;;;;;5014388;28;20228;-68
2021/12/09 04:50:56;;;;;;;0.20;0.20;;;0.80;99.90;;;;;;5007494;28;20624;-68
2021/12/09 04:53:23;;;;;;;0.10;0.10;;;0.80;99.90;;;;;;5015563;28;20709;-67
2021/12/09 04:55:52;;;;;;;0.10;0.10;;;0.80;99.90;;;;;;5017040;28;20663;-69
2021/12/09 04:58:19;;;;;;;0.17;0.17;;;0.80;99.90;;;;;;5014479;28;20228;-68
2021/12/09 05:00:48;;;;;;;0.20;0.20;;;0.80;99.90;;;;;;5013728;28;20592;-67
2021/12/09 05:03:15;;;;;;;0.20;0.20;;;0.80;99.90;;;;;;5018328;28;20705;-68
2021/12/09 05:05:46;;;;;;;0.10;0.10;;;0.80;99.90;;;;;;5010950;28;20296;-68
2021/12/09 05:08:15;;;;;;;0.13;0.13;;;0.80;99.90;;;;;;5017795;28;20224;-67
2021/12/09 05:10:57;;;;;;;0.10;0.10;;;0.80;99.90;;;;;;5026065;28;20686;-68
2021/12/09 05:13:27;;;;;;;0.20;0.20;;;0.80;99.90;;;;;;5014751;28;20617;-68
2021/12/09 05:15:56;;;;;;;0.10;0.10;;;0.80;99.90;;;;;;4998978;28;20201;-68
2021/12/09 05:18:25;;;;;;;0.10;0.10;;;0.80;99.90;;;;;;5013397;28;20243;-68
2021/12/09 05:20:53;;;;;;;0.10;0.10;;;0.80;99.90;;;;;;5007104;28;20612;-68
2021/12/09 05:23:22;;;;;;;0.10;0.10;;;0.70;99.90;;;;;;5011764;28;20614;-68
2021/12/09 05:25:48;;;;;;;0.20;0.20;;;0.70;99.90;;;;;;5012065;28;20379;-68
2021/12/09 05:28:17;;;;;;;0.10;0.10;;;0.70;99.90;;;;;;5007974;28;20304;-68
2021/12/09 05:33:33;;;;;;;0.20;0.20;;;0.60;99.90;;;;;;5011019;28;20200;-69
2021/12/09 05:36:00;;;;;;;0.20;0.20;;;0.60;99.90;;;;;;5011762;28;20203;-70
2021/12/09 05:38:28;;;;;;;0.10;0.10;;;0.60;99.90;;;;;;5018506;28;20330;-69
2021/12/09 05:40:55;;;;;;;0.20;0.20;;;0.60;99.90;;;;;;5008970;28;20271;-68
2021/12/09 05:43:22;;;;;;;0.10;0.10;;;0.60;99.90;;;;;;5011607;28;20741;-69
2021/12/09 05:45:51;;;;;;;0.10;0.10;;;0.60;99.90;;;;;;5021599;28;20671;-69
2021/12/09 05:48:18;;;;;;;0.10;0.10;;;0.60;99.90;;;;;;5012650;28;20214;-69
2021/12/09 05:50:46;;;;;;;0.13;0.13;;;0.60;99.90;;;;;;5014033;28;20571;-67
2021/12/09 05:53:14;;;;;;;0.20;0.20;;;0.60;99.90;;;;;;5020788;28;20630;-67
2021/12/09 05:55:43;;;;;;;0.20;0.20;;;0.60;99.90;;;;;;5011248;28;20232;-67
2021/12/09 05:58:11;;;;;;;0.10;0.10;;;0.60;99.90;;;;;;5005519;28;20672;-68
2021/12/09 06:00:38;;;;;;;0.20;0.20;;;0.60;99.90;;;;;;5014456;28;20195;-68
2021/12/09 06:03:06;;;;;;;0.10;0.10;;;0.60;99.90;;;;;;5012724;28;20620;-69
2021/12/09 06:05:34;;;;;;;0.10;0.10;;;0.60;99.90;;;;;;5011553;28;20227;-68
2021/12/09 06:08:01;;;;;;;0.10;0.10;;;0.60;99.90;;;;;;5010855;28;20697;-67
2021/12/09 06:10:28;;;;;;;0.10;0.10;;;0.60;99.90;;;;;;5013563;28;20630;-68
2021/12/09 06:12:55;;;;;;;0.20;0.20;;;0.60;99.90;;;;;;5013782;28;20654;-68
2021/12/09 06:15:23;;;;;;;0.10;0.10;;;0.60;99.90;;;;;;5008220;28;20258;-69
2021/12/09 06:17:50;;;;;;;0.10;0.10;;;0.60;99.90;;;;;;5005973;28;21311;-68
2021/12/09 06:20:18;;;;;;;0.20;0.20;;;0.60;99.90;;;;;;5002722;28;20207;-67
2021/12/09 06:22:45;;;;;;;0.10;0.10;;;0.60;99.90;;;;;;4997058;28;20209;-68
2021/12/09 06:25:17;;;;;;;0.10;0.10;;;0.60;99.90;;;;;;5005083;28;20607;-68
2021/12/09 06:27:44;;;;;;;0.20;0.20;;;0.60;99.90;;;;;;5007511;28;20710;-68
2021/12/09 06:30:14;;;;;;;0.20;0.20;;;0.50;99.90;;;;;;5014629;28;20212;-67
2021/12/09 06:32:41;;;;;;;0.20;0.20;;;0.50;99.90;;;;;;5014338;28;20254;-68
2021/12/09 06:35:11;;;;;;;0.20;0.20;;;0.50;99.90;;;;;;5019591;28;20638;-68
2021/12/09 06:37:43;;;;;;;0.20;0.20;;;0.50;99.90;;;;;;5013709;28;20665;-67
2021/12/09 06:40:13;;;;;;;0.20;0.20;;;0.50;99.90;;;;;;5013512;28;20325;-66
2021/12/09 06:42:40;;;;;;;0.10;0.10;;;0.50;99.90;;;;;;5011708;28;20207;-69
2021/12/09 06:45:08;;;;;;;0.20;0.20;;;0.50;99.90;;;;;;5010483;28;20235;-69
2021/12/09 06:47:36;;;;;;;0.20;0.20;;;0.40;99.90;;;;;;5008386;28;20208;-68
2021/12/09 06:50:04;;;;;;;0.10;0.10;;;0.40;99.90;;;;;;5015258;28;20206;-67
2021/12/09 06:52:31;;;;;;;0.20;0.20;;;0.40;99.90;;;;;;5012417;28;20259;-69
2021/12/09 06:54:59;;;;;;;0.20;0.20;;;0.40;99.90;;;;;;5003918;28;20196;-68
2021/12/09 06:57:27;;;;;;;0.20;0.20;;;0.40;99.90;;;;;;5013263;28;20296;-68
2021/12/09 06:59:54;;;;;;;0.20;0.20;;;0.40;99.90;;;;;;5007159;28;20711;-68
2021/12/09 07:02:21;;;;;;;0.20;0.20;;;0.40;99.90;;;;;;5017498;28;20215;-68
2021/12/09 07:04:47;;;;;;;0.10;0.10;;;0.40;99.90;;;;;;5011568;28;20615;-68
2021/12/09 07:07:14;;;;;;;0.17;0.17;;;0.40;99.90;;;;;;5003710;28;20244;-69
2021/12/09 07:09:41;;;;;;;0.20;0.20;;;0.50;99.90;;;;;;5011656;28;20281;-69
2021/12/09 07:12:11;;;;;;;0.20;0.20;;;0.40;99.90;;;;;;5001219;28;20352;-69
2021/12/09 07:14:39;;;;;;;0.20;0.20;;;0.40;99.90;;;;;;5011230;28;20200;-68
2021/12/09 07:17:06;;;;;;;0.20;0.20;;;0.40;99.90;;;;;;5015668;28;20225;-68
2021/12/09 07:19:33;;;;;;;0.10;0.10;;;0.30;99.90;;;;;;5010991;28;20663;-68
2021/12/09 07:22:00;;;;;;;0.20;0.20;;;0.30;99.90;;;;;;5000122;28;20205;-68
2021/12/09 07:24:27;;;;;;;0.20;0.20;;;0.30;99.90;;;;;;5000818;28;20198;-66
2021/12/09 07:26:54;;;;;;;0.20;0.20;;;0.30;99.90;;;;;;5010818;28;20252;-68
2021/12/09 07:29:23;;;;;;;0.10;0.10;;;0.40;99.90;;;;;;5011689;28;20615;-68
2021/12/09 07:31:50;;;;;;;0.20;0.20;;;0.40;99.90;;;;;;5011002;28;20275;-68
2021/12/09 07:34:17;;;;;;;0.10;0.10;;;0.40;99.90;;;;;;5006853;28;20192;-69
2021/12/09 07:36:44;;;;;;;0.10;0.10;;;0.40;99.90;;;;;;5013544;28;20232;-68
2021/12/09 07:39:11;;;;;;;0.17;0.17;;;0.40;99.90;;;;;;5014472;28;20233;-68
2021/12/09 07:41:38;;;;;;;0.20;0.20;;;0.40;99.90;;;;;;5009295;28;20215;-69
2021/12/09 07:44:05;;;;;;;0.20;0.20;;;0.50;99.90;;;;;;5014558;28;20299;-66
2021/12/09 07:46:35;;;;;;;0.20;0.20;;;0.40;99.90;;;;;;5008102;28;20201;-67
2021/12/09 07:49:06;;;;;;;0.20;0.20;;;0.50;99.90;;;;;;5006036;28;20199;-66
2021/12/09 07:51:33;;;;;;;0.13;0.13;;;0.50;99.90;;;;;;4999509;28;20248;-66
2021/12/09 07:54:02;;;;;;;0.20;0.20;;;0.50;99.90;;;;;;5008551;28;20205;-66
2021/12/09 07:56:30;;;;;;;0.10;0.10;;;0.50;99.90;;;;;;5013540;28;20209;-66
2021/12/09 07:58:57;;;;;;;0.20;0.20;;;0.50;99.90;;;;;;5003967;28;20224;-66
2021/12/09 08:01:24;;;;;;;0.20;0.20;;;0.50;99.90;;;;;;5008250;28;20237;-66
2021/12/09 08:03:52;;;;;;;0.10;0.10;;;0.50;99.90;;;;;;5004854;28;20204;-65
2021/12/09 08:06:19;;;;;;;0.10;0.10;;;0.50;99.90;;;;;;5019765;28;20615;-66
2021/12/09 08:08:46;;;;;;;0.20;0.20;;;0.40;99.90;;;;;;5006807;28;20209;-66
2021/12/09 08:11:13;;;;;;;0.10;0.10;;;0.50;99.90;;;;;;5015861;28;20281;-67
2021/12/09 08:13:40;;;;;;;0.20;0.20;;;0.50;99.90;;;;;;5007668;28;20200;-67
2021/12/09 08:16:07;;;;;;;0.20;0.20;;;0.40;99.90;;;;;;4999633;28;20205;-67
2021/12/09 08:18:53;;;;;;;0.20;0.20;;;0.50;99.90;;;;;;5007232;28;20684;-66
2021/12/09 08:21:22;;;;;;;0.20;0.20;;;0.50;99.90;;;;;;5009348;28;20256;-67
2021/12/09 08:23:49;;;;;;;0.20;0.20;;;0.50;99.90;;;;;;5002752;28;20311;-66
2021/12/09 08:26:16;;;;;;;0.20;0.20;;;0.50;99.90;;;;;;5001357;28;20255;-66
2021/12/09 08:28:43;;;;;;;0.10;0.10;;;0.60;99.90;;;;;;5006676;28;20271;-66
2021/12/09 08:31:10;;;;;;;0.20;0.20;;;0.60;99.90;;;;;;5011166;28;20284;-66
2021/12/09 08:33:37;;;;;;;0.20;0.20;;;0.60;99.90;;;;;;5012073;28;20199;-67
2021/12/09 08:36:05;;;;;;;0.20;0.20;;;0.60;99.90;;;;;;5023646;28;20200;-65
2021/12/09 08:38:34;;;;;;;0.20;0.20;;;0.60;99.90;;;;;;5017256;28;20254;-65
2021/12/09 08:41:02;;;;;;;0.20;0.20;;;0.70;99.90;;;;;;5000789;28;20205;-66
2021/12/09 08:43:29;;;;;;;0.20;0.20;;;0.70;99.90;;;;;;5007357;28;20212;-66
2021/12/09 08:45:57;;;;;;;0.20;0.20;;;0.60;99.90;;;;;;5002197;28;20203;-66
2021/12/09 08:48:25;;;;;;;0.20;0.20;;;0.60;99.90;;;;;;5014177;28;20248;-66
2021/12/09 08:50:53;;;;;;;0.20;0.20;;;0.60;99.90;;;;;;5015616;28;20205;-66
2021/12/09 08:53:22;;;;;;;0.20;0.20;;;0.70;99.90;;;;;;5001224;28;20205;-66
2021/12/09 08:55:51;;;;;;;0.20;0.20;;;0.70;99.90;;;;;;5005063;28;20244;-66
2021/12/09 08:58:17;;;;;;;0.20;0.20;;;0.70;99.90;;;;;;5014483;28;20219;-65
2021/12/09 09:00:45;;;;;;;0.10;0.10;;;0.80;99.90;;;;;;5017530;28;20200;-65
2021/12/09 09:03:12;;;;;;;0.20;0.20;;;0.80;99.90;;;;;;5012163;28;20193;-66
2021/12/09 09:05:40;;;;;;;0.20;0.20;;;0.80;99.90;;;;;;5009614;28;20643;-68
2021/12/09 09:08:07;;;;;;;0.10;0.10;;;0.90;99.90;;;;;;5005035;28;20221;-68
2021/12/09 09:10:36;;;;;;;0.20;0.20;;;0.90;99.90;;;;;;5003275;28;20205;-68
2021/12/09 09:13:05;;;;;;;0.10;0.10;;;0.90;99.90;;;;;;5003833;28;20211;-68
2021/12/09 09:15:32;;;;;;;0.20;0.20;;;0.90;99.90;;;;;;5004868;28;20232;-68
2021/12/09 09:18:00;;;;;;;0.20;0.20;;;0.90;99.90;;;;;;5004476;28;20240;-68
2021/12/09 09:20:30;;;;;;;0.20;0.20;;;0.90;99.90;;;;;;5008577;28;20207;-68
2021/12/09 09:22:58;;;;;;;0.20;0.20;;;;;;;;;;5031146;28;20202;-68
2021/12/09 09:25:29;;;;;;;0.10;0.10;;;;;;;;;;5011092;28;20996;-68
2021/12/09 09:27:57;;;;;;;0.20;0.20;;;;;;;;;;5009418;28;20227;-68
2021/12/09 09:30:33;;;;;;;0.10;0.10;;;;;;;;;;5003995;28;20199;-68
2021/12/09 09:33:00;;;;;;;0.20;0.20;;;1.00;99.90;;;;;;5004530;28;20199;-69
2021/12/09 09:35:28;;;;;;;0.20;0.20;;;1.10;99.90;;;;;;5016764;28;20541;-68
2021/12/09 09:37:56;;;;;;;0.20;0.20;;;1.20;99.90;;;;;;5009169;28;20269;-68
2021/12/09 09:40:27;;;;;;;0.17;0.17;;;1.20;99.90;;;;;;5009298;28;20574;-69
2021/12/09 09:43:01;;;;;;;0.10;0.10;;;1.30;99.90;;;;;;5010097;28;20635;-69
2021/12/09 09:45:30;;;;;;;0.10;0.10;;;1.40;99.90;;;;;;5007549;28;20201;-67
2021/12/09 09:47:57;;;;;;;0.10;0.10;;;1.50;99.90;;;;;;5005504;28;20582;-69
2021/12/09 09:50:25;;;;;;;0.20;0.20;;;;;;;;;;5019324;28;20692;-67
2021/12/09 09:52:52;;;;;;;0.10;0.10;;;;;;;;;;5007749;28;20662;-69
2021/12/09 09:55:21;;;;;;;0.10;0.10;;;;;;;;;;4997168;28;20203;-68
2021/12/09 09:57:52;;;;;;;0.20;0.20;;;;;;;;;;5004327;28;20777;-68
2021/12/09 10:00:21;;;;;;;0.20;0.20;;;;;;;;;;5001469;28;20710;-67
2021/12/09 10:02:53;;;;;;;0.20;0.20;;;;;;;;;;5012402;28;20600;-68
2021/12/09 10:05:25;;;;;;;0.20;0.20;;;;;;;;;;5005034;28;20706;-68
2021/12/09 10:07:53;;;;;;;0.10;0.10;;;;;;;;;;5004028;28;20705;-68
2021/12/09 10:10:20;;;;;;;0.10;0.10;;;;;;;;;;5020497;28;20737;-69
2021/12/09 10:13:02;;;;;;;0.20;0.20;;;;;;;;;;5011820;28;20619;-70
2021/12/09 10:15:36;;;;;;;0.10;0.10;;;;;;;;;;5008125;28;20619;-68
2021/12/09 10:18:05;;;;;;;0.10;0.10;;;;;;;;;;5005364;28;20654;-67
2021/12/09 10:20:59;;;;;;;0.10;0.10;;;;;;;;;;5007524;28;20638;-68
2021/12/09 10:23:29;;;;;;;0.20;0.20;;;;;;;;;;4966555;28;20281;-68
2021/12/09 10:26:13;;;;;;;0.20;0.20;;;;;;;;;;5010594;28;20635;-68
2021/12/09 10:28:44;;;;;;;0.20;0.20;;;;;;;;;;5013156;28;20661;-69
2021/12/09 10:31:14;;;;;;;0.20;0.20;;;;;;;;;;5012024;28;20637;-67
2021/12/09 10:34:06;;;;;;;0.10;0.10;;;;;;;;;;5003909;28;20651;-68
2021/12/09 10:36:48;;;;;;;0.20;0.20;;;;;;;;;;5014233;28;20678;-68
2021/12/09 10:39:16;;;;;;;0.20;0.20;;;;;;;;;;5015129;28;20662;-70
2021/12/09 10:41:43;;;;;;;0.13;0.13;;;;;;;;;;5003422;28;20649;-69
2021/12/09 10:44:11;;;;;;;0.20;0.20;;;;;;;;;;5007682;28;20207;-68
2021/12/09 10:46:50;;;;;;;0.10;0.10;;;;;;;;;;5005778;28;20631;-67
2021/12/09 10:49:20;;;;;;;0.10;0.10;;;;;;;;;;5008186;28;20969;-69
2021/12/09 10:51:57;;;;;;;0.10;0.10;;;1.50;99.90;;;;;;5001250;28;20694;-67
2021/12/09 10:54:34;;;;;;;0.20;0.20;;;;;;;;;;5010811;28;20668;-69
2021/12/09 10:57:27;;;;;;;0.10;0.10;;;2.30;99.90;;;;;;5014059;28;20759;-68
2021/12/09 10:59:55;;;;;;;0.20;0.20;;;1.50;99.90;;;;;;5003772;28;20663;-67
2021/12/09 11:02:23;;;;;;;0.10;0.10;;;;;;;;;;5011823;28;20620;-68
2021/12/09 11:05:04;;;;;;;0.10;0.10;;;;;;;;;;5006717;28;20652;-69
2021/12/09 11:07:31;;;;;;;0.20;0.20;;;1.40;99.90;;;;;;5018533;28;21049;-69
2021/12/09 11:10:18;;;;;;;0.20;0.20;;;;;;;;;;5013293;28;20617;-70
2021/12/09 11:12:53;;;;;;;0.10;0.10;;;;;;;;;;5003924;28;20260;-68
2021/12/09 11:15:22;;;;;;;0.20;0.20;;;1.30;99.90;;;;;;5016220;28;20627;-70
2021/12/09 11:17:52;;;;;;;0.10;0.10;;;1.40;99.90;;;;;;5004653;28;20731;-70
2021/12/09 11:20:45;;;;;;;0.20;0.20;;;1.30;99.90;;;;;;5016571;28;20667;-71
2021/12/09 11:23:37;;;;;;;0.10;0.10;;;1.30;99.90;;;;;;5019179;28;20631;-70
2021/12/09 11:26:33;;;;;;;0.20;0.20;;;1.30;99.90;;;;;;5011262;28;20637;-70
2021/12/09 11:29:05;;;;;;;0.20;0.20;;;1.30;99.90;;;;;;5012350;28;20705;-68
2021/12/09 11:31:34;;;;;;;0.10;0.10;;;1.30;99.90;;;;;;5006271;28;20624;-68
2021/12/09 11:34:09;;;;;;;0.20;0.20;;;1.20;99.90;;;;;;5002096;28;20612;-69
2021/12/09 11:36:43;;;;;;;0.20;0.20;;;1.20;99.90;;;;;;5006484;28;20708;-69
2021/12/09 11:39:17;;;;;;;0.20;0.20;;;1.20;99.90;;;;;;5016874;28;20655;-70
2021/12/09 11:41:45;;;;;;;0.10;0.10;;;1.20;99.90;;;;;;5007801;28;20619;-69
2021/12/09 11:44:14;;;;;;;0.13;0.13;;;1.30;99.90;;;;;;5015541;28;20208;-69
2021/12/09 11:46:46;;;;;;;0.20;0.20;;;1.30;99.90;;;;;;5010022;28;20295;-68
2021/12/09 11:49:14;;;;;;;0.10;0.10;;;1.40;99.90;;;;;;5000801;28;20610;-68
2021/12/09 11:51:44;;;;;;;0.20;0.20;;;1.40;99.90;;;;;;5027580;28;20695;-70
2021/12/09 11:54:12;;;;;;;0.20;0.20;;;1.40;99.90;;;;;;5012418;28;20623;-69
2021/12/09 11:56:56;;;;;;;0.10;0.10;;;1.50;99.90;;;;;;5015854;28;20616;-70
2021/12/09 12:11:39;;;;;;;0.20;0.20;;;1.60;99.90;;;;;;5055285;28;20664;-70
2021/12/09 12:14:27;;;;;;;0.20;0.20;;;1.60;99.90;;;;;;5073992;28;20628;-69
2021/12/09 12:17:15;;;;;;;0.10;0.10;;;1.50;99.90;;;;;;5056789;28;20645;-69
2021/12/09 12:26:07;;;;;;;0.10;0.10;;;1.40;99.90;;;;;;5056825;28;20617;-69
2021/12/09 12:28:51;;;;;;;0.13;0.13;;;1.40;99.90;;;;;;5059921;28;20653;-69
2021/12/09 12:31:59;;;;;;;0.20;0.20;;;1.40;99.90;;;;;;5055602;28;20206;-69
2021/12/09 12:37:57;;;;;;;0.10;0.10;;;1.50;99.90;;;;;;5053876;28;20722;-69
2021/12/09 12:40:27;;;;;;;0.10;0.10;;;1.40;99.90;;;;;;5054415;28;20644;-69
2021/12/09 12:43:00;;;;;;;0.10;0.10;;;1.40;99.90;;;;;;5054884;28;20644;-68
2021/12/09 12:51:33;;;;;;;0.10;0.10;;;1.30;99.90;;;;;;5074279;28;21194;-67
2021/12/09 12:54:23;;;;;;;0.20;0.20;;;1.40;99.90;;;;;;5087772;28;20633;-70
2021/12/09 12:56:55;;;;;;;0.17;0.17;;;1.40;99.90;;;;;;5059921;28;20643;-69
2021/12/09 12:59:31;;;;;;;0.10;0.10;;;;;;;;;;5055675;28;20221;-69
2021/12/09 13:05:28;;;;;;;0.20;0.20;;;;;;;;;;5045768;28;20605;-69
2021/12/09 13:08:28;;;;;;;0.20;0.20;;;;;;;;;;5056056;28;20664;-68
2021/12/09 13:13:47;;;;;;;0.10;0.10;;;;;;;;;;5038975;28;20618;-70
2021/12/09 13:16:19;;;;;;;0.10;0.10;;;;;;;;;;5079919;28;20203;-69
2021/12/09 13:19:00;;;;;;;0.20;0.20;;;;;;;;;;5046379;28;20219;-69
2021/12/09 13:21:41;;;;;;;0.20;0.20;;;;;;;;;;5039614;28;20219;-69
2021/12/09 13:24:37;;;;;;;0.20;0.20;;;;;;;;;;5072337;28;20627;-69
2021/12/09 13:27:16;;;;;;;0.20;0.20;;;;;;;;;;5018499;28;20657;-70
2021/12/09 13:29:52;;;;;;;0.17;0.17;;;;;;;;;;5043073;28;20225;-69
2021/12/09 13:32:57;;;;;;;0.10;0.10;;;;;;;;;;5076853;28;20625;-69
2021/12/09 13:35:34;;;;;;;0.13;0.13;;;;;;;;;;5045573;28;20633;-69
2021/12/09 13:46:48;;;;;;;0.10;0.10;;;;;;;;;;4962112;28;20202;-69
2021/12/09 13:49:23;;;;;;;0.17;0.17;;;;;;;;;;4978632;28;20616;-69
2021/12/09 13:52:02;;;;;;;0.20;0.20;;;;;;;;;;5013174;28;20197;-69
2021/12/09 13:54:29;;;;;;;0.10;0.10;;;;;;;;;;5044493;28;20725;-68
2021/12/09 13:56:58;;;;;;;0.10;0.10;;;;;;;;;;5042500;28;20637;-69
2021/12/09 13:59:28;;;;;;;0.17;0.17;;;;;;;;;;5043302;28;20203;-70
2021/12/09 14:01:57;;;;;;;0.10;0.10;;;;;;;;;;5040922;28;20227;-69
2021/12/09 14:04:27;;;;;;;0.20;0.20;;;;;;;;;;5042924;28;20656;-70
2021/12/09 14:07:00;;;;;;;0.10;0.10;;;;;;;;;;5071331;28;20305;-69
2021/12/09 14:09:29;;;;;;;0.20;0.20;;;;;;;;;;5046769;28;20606;-70
2021/12/09 14:11:58;;;;;;;0.17;0.17;;;;;;;;;;5044214;28;20951;-69
2021/12/09 14:14:39;;;;;;;0.20;0.20;;;;;;;;;;5041681;28;20634;-70
2021/12/09 14:17:10;;;;;;;0.10;0.10;;;;;;;;;;5073713;28;20215;-70